Time;durP1;ratioP1;P1;durP2;ratioP2;P2;SDS_P1;SDS_P2;PMS_P1;PMS_P2;Temp;Humidity;BMP_temperature;BMP_pressure;BME280_temperature;BME280_humidity;BME280_pressure;Samples;Min_cycle;Max_cycle;Signal;HPM_P1;HPM_P2
2022/07/30 00:05:03;;;;;;;17.03;6.90;;;15.90;99.90;;;;;;20763087;28;20646;-78
2022/07/30 00:15:04;;;;;;;21.83;10.70;;;15.60;99.90;;;;;;20761624;28;20026;-79
2022/07/30 00:25:05;;;;;;;25.88;13.00;;;15.40;99.90;;;;;;20758932;28;20038;-79
2022/07/30 00:35:07;;;;;;;20.83;10.90;;;15.40;99.90;;;;;;20742666;28;20041;-79
2022/07/30 00:45:09;;;;;;;10.17;6.70;;;15.20;99.90;;;;;;20760369;28;20295;-79
2022/07/30 00:55:12;;;;;;;18.88;5.70;;;15.20;99.90;;;;;;20740455;28;20571;-79
2022/07/30 01:05:13;;;;;;;9.93;5.15;;;15.20;99.90;;;;;;20758194;28;20030;-77
2022/07/30 01:15:15;;;;;;;7.67;5.03;;;15.00;99.90;;;;;;20758088;28;20032;-79
2022/07/30 01:25:25;;;;;;;12.23;5.40;;;14.90;99.90;;;;;;20726219;28;20040;-78
2022/07/30 01:35:29;;;;;;;12.07;8.20;;;14.90;99.90;;;;;;20753879;28;20060;-79
2022/07/30 01:45:31;;;;;;;9.38;5.60;;;14.70;99.90;;;;;;20755852;28;20084;-78
2022/07/30 01:55:33;;;;;;;;;;;14.50;99.90;;;;;;20754945;28;20034;-79
2022/07/30 02:05:36;;;;;;;10.57;6.20;;;14.50;99.90;;;;;;20754256;28;19914;-79
2022/07/30 02:16:05;;;;;;;10.98;6.95;;;14.30;99.90;;;;;;20753500;28;20033;-79
2022/07/30 02:26:07;;;;;;;13.75;7.97;;;14.20;99.90;;;;;;20753555;28;20060;-77
2022/07/30 02:36:09;;;;;;;15.02;9.82;;;14.20;99.90;;;;;;20769233;28;20040;-79
2022/07/30 02:46:13;;;;;;;14.63;8.90;;;14.20;99.90;;;;;;20767667;28;20370;-79
2022/07/30 02:56:45;;;;;;;11.37;7.37;;;14.00;99.90;;;;;;20767479;28;20042;-79
2022/07/30 03:06:48;;;;;;;22.10;14.82;;;14.00;99.90;;;;;;20764770;28;20171;-77
2022/07/30 03:16:54;;;;;;;14.45;8.50;;;14.10;99.90;;;;;;20762617;22;20041;-76
2022/07/30 03:26:57;;;;;;;12.43;8.32;;;14.10;99.90;;;;;;20732788;28;20449;-76
2022/07/30 03:36:58;;;;;;;20.35;10.27;;;13.90;99.90;;;;;;20747887;28;20030;-76
2022/07/30 03:46:59;;;;;;;26.13;17.93;;;13.90;99.90;;;;;;20745714;28;20492;-76
2022/07/30 03:57:02;;;;;;;27.67;14.82;;;13.70;99.90;;;;;;20729501;28;20289;-76
2022/07/30 04:07:15;;;;;;;18.75;12.57;;;13.70;99.90;;;;;;20728999;28;20045;-76
2022/07/30 04:17:24;;;;;;;69.70;37.50;;;13.40;99.90;;;;;;20727537;28;20084;-75
2022/07/30 04:27:25;;;;;;;52.95;29.25;;;13.40;99.90;;;;;;20728095;28;20486;-77
2022/07/30 04:37:27;;;;;;;24.83;15.43;;;13.60;99.90;;;;;;20745663;28;20029;-77
2022/07/30 04:47:28;;;;;;;21.98;12.38;;;13.60;99.90;;;;;;20726065;28;20292;-76
2022/07/30 04:57:51;;;;;;;20.88;14.65;;;13.60;99.90;;;;;;20743178;28;20073;-77
2022/07/30 05:07:53;;;;;;;23.17;14.32;;;14.00;99.90;;;;;;20741854;28;20025;-76
2022/07/30 05:17:55;;;;;;;67.75;43.03;;;14.10;99.90;;;;;;20741111;28;20056;-77
2022/07/30 05:27:57;;;;;;;36.67;22.70;;;14.50;99.90;;;;;;20741313;28;20037;-77
2022/07/30 05:38:00;;;;;;;12.23;8.27;;;15.10;99.90;;;;;;20756832;28;20041;-77
2022/07/30 05:48:05;;;;;;;13.63;6.32;;;15.60;99.90;;;;;;20756688;28;20034;-77
2022/07/30 05:58:06;;;;;;;13.57;6.93;;;16.10;99.90;;;;;;20784963;28;20037;-76
2022/07/30 06:08:07;;;;;;;7.23;5.70;;;16.50;99.90;;;;;;20790415;28;20530;-77
2022/07/30 06:18:08;;;;;;;7.55;5.18;;;17.00;99.90;;;;;;20818703;28;20530;-77
2022/07/30 06:28:22;;;;;;;9.07;4.80;;;17.40;99.90;;;;;;20819251;28;20076;-77
2022/07/30 06:38:25;;;;;;;6.10;4.97;;;17.90;99.90;;;;;;20818075;28;20646;-76
2022/07/30 06:48:41;;;;;;;9.73;4.70;;;18.40;99.90;;;;;;20833814;28;20037;-77
2022/07/30 06:58:42;;;;;;;7.13;4.10;;;19.00;99.90;;;;;;20806061;28;20036;-78
2022/07/30 07:09:02;;;;;;;7.72;3.80;;;19.70;99.90;;;;;;20763792;28;20034;-77
2022/07/30 07:19:10;;;;;;;4.85;2.70;;;20.50;99.90;;;;;;20736977;28;20068;-77
2022/07/30 07:29:11;;;;;;;5.20;2.80;;;20.80;99.90;;;;;;20742873;28;20488;-77
2022/07/30 07:39:12;;;;;;;136.93;55.65;;;21.30;99.90;;;;;;20749718;28;20061;-77
2022/07/30 07:49:15;;;;;;;4.22;2.30;;;21.80;99.90;;;;;;20742141;28;20045;-75
2022/07/30 07:59:21;;;;;;;2.67;1.38;;;22.30;99.90;;;;;;20739173;28;20124;-74
2022/07/30 08:09:22;;;;;;;5.80;1.42;;;22.70;99.90;;;;;;20691644;28;20411;-76
2022/07/30 08:19:46;;;;;;;3.97;1.50;;;23.10;99.90;;;;;;20734254;28;20446;-75
2022/07/30 08:29:52;;;;;;;4.00;1.70;;;23.60;99.90;;;;;;20754294;28;20040;-75
2022/07/30 08:39:54;;;;;;;;;;;24.10;99.90;;;;;;20755858;28;20040;-75
2022/07/30 08:50:00;;;;;;;4.80;1.90;;;24.70;99.90;;;;;;20780974;28;20277;-75
2022/07/30 09:00:08;;;;;;;7.07;2.60;;;25.20;99.90;;;;;;20773511;28;20044;-75
2022/07/30 09:10:09;;;;;;;10.32;2.03;;;25.20;99.90;;;;;;20767181;28;20042;-75
2022/07/30 09:20:11;;;;;;;3.42;1.67;;;25.30;99.90;;;;;;20807431;23;20034;-76
2022/07/30 09:30:13;;;;;;;3.35;1.95;;;26.10;99.90;;;;;;20748168;28;20399;-76
2022/07/30 09:40:32;;;;;;;6.20;1.90;;;26.20;99.90;;;;;;20779412;28;20030;-75
2022/07/30 09:50:59;;;;;;;4.88;1.85;;;26.00;99.90;;;;;;20775730;28;20088;-76
2022/07/30 10:01:00;;;;;;;3.00;1.60;;;26.50;99.90;;;;;;20803012;28;20034;-76
2022/07/30 10:11:33;;;;;;;2.22;1.10;;;27.60;99.90;;;;;;20802631;28;20407;-76
2022/07/30 10:21:34;;;;;;;6.30;1.60;;;28.90;99.90;;;;;;20817554;28;20067;-73
2022/07/30 10:31:54;;;;;;;1.88;1.30;;;27.80;99.90;;;;;;20788809;28;20038;-72
2022/07/30 10:42:20;;;;;;;1.80;1.00;;;28.60;99.90;;;;;;20783995;28;20156;-73
2022/07/30 10:52:49;;;;;;;3.70;1.10;;;28.40;99.90;;;;;;20798622;28;20484;-73
2022/07/30 11:03:29;;;;;;;1.58;1.08;;;28.00;99.90;;;;;;20808360;28;20377;-73
2022/07/30 11:14:08;;;;;;;1.15;0.80;;;28.90;99.90;;;;;;20296721;29;20051;-72
2022/07/30 11:24:43;;;;;;;2.88;1.08;;;26.80;99.90;;;;;;20002322;29;20058;-72
2022/07/30 11:34:45;;;;;;;1.80;0.98;;;28.50;99.90;;;;;;19983181;29;20077;-73
2022/07/30 11:44:46;;;;;;;4.10;0.75;;;27.50;99.90;;;;;;20393194;29;20039;-72
2022/07/30 11:54:54;;;;;;;1.70;0.70;;;28.40;98.50;;;;;;20711443;28;20037;-73
2022/07/30 12:04:55;;;;;;;4.45;1.02;;;30.30;97.60;;;;;;20780119;28;20033;-74
2022/07/30 12:14:55;;;;;;;2.75;0.93;;;30.10;96.20;;;;;;20783865;28;20420;-73
2022/07/30 12:25:06;;;;;;;4.30;1.02;;;29.00;98.00;;;;;;20792046;28;20069;-73
2022/07/30 12:35:08;;;;;;;1.85;1.10;;;28.90;97.90;;;;;;20825907;28;20112;-73
2022/07/30 12:45:25;;;;;;;2.17;1.13;;;28.70;97.40;;;;;;20825205;28;20112;-73
2022/07/30 12:55:34;;;;;;;4.85;1.30;;;28.20;98.50;;;;;;20824984;28;20522;-72
2022/07/30 13:05:50;;;;;;;1.33;0.95;;;28.10;98.90;;;;;;20775863;28;20061;-73
2022/07/30 13:15:58;;;;;;;1.92;0.98;;;29.70;97.10;;;;;;20741673;28;20042;-72
2022/07/30 13:25:59;;;;;;;2.05;1.10;;;29.10;95.90;;;;;;20781860;28;20546;-73
2022/07/30 13:36:00;;;;;;;3.05;1.08;;;29.50;96.80;;;;;;20771112;28;20030;-74
2022/07/30 13:46:03;;;;;;;2.30;1.27;;;29.00;96.80;;;;;;20756525;28;20053;-74
2022/07/30 13:56:04;;;;;;;2.33;1.17;;;29.10;96.30;;;;;;20757742;28;20443;-73
2022/07/30 14:06:05;;;;;;;3.03;1.20;;;28.10;96.60;;;;;;20804764;28;20480;-73
2022/07/30 14:16:06;;;;;;;1.98;1.02;;;28.20;96.10;;;;;;20781435;28;20030;-73
2022/07/30 14:26:07;;;;;;;3.08;1.00;;;28.60;96.00;;;;;;20792526;28;20065;-75
2022/07/30 14:36:09;;;;;;;2.55;0.90;;;28.30;96.20;;;;;;20765109;28;20058;-75
2022/07/30 14:46:09;;;;;;;2.13;1.10;;;28.10;95.20;;;;;;20731880;28;20038;-75
2022/07/30 14:56:12;;;;;;;2.53;0.90;;;29.00;95.20;;;;;;20750357;28;20037;-76
2022/07/30 15:06:14;;;;;;;3.95;0.90;;;28.90;96.00;;;;;;20750885;28;20288;-75
2022/07/30 15:16:15;;;;;;;4.28;1.40;;;29.30;95.70;;;;;;20746420;28;20447;-75
2022/07/30 15:26:15;;;;;;;4.75;1.15;;;29.00;95.90;;;;;;20832434;22;20037;-79
2022/07/30 15:36:16;;;;;;;5.15;1.15;;;28.60;96.00;;;;;;20831817;28;20065;-77
2022/07/30 15:46:17;;;;;;;4.28;1.20;;;28.90;95.50;;;;;;20808977;28;20031;-78
2022/07/30 15:56:19;;;;;;;1.65;0.90;;;28.90;95.10;;;;;;20772165;28;20026;-79
2022/07/30 16:06:20;;;;;;;5.68;1.00;;;29.00;95.50;;;;;;20776619;28;20048;-78
2022/07/30 16:16:21;;;;;;;2.25;0.98;;;29.00;96.10;;;;;;20814957;28;20029;-79
2022/07/30 16:26:22;;;;;;;4.40;1.05;;;28.70;95.50;;;;;;20845723;28;20049;-79
2022/07/30 16:36:23;;;;;;;3.10;1.00;;;28.30;95.50;;;;;;20873198;28;20472;-80
2022/07/30 16:46:23;;;;;;;2.80;1.17;;;28.50;95.90;;;;;;20846240;28;20057;-82
2022/07/30 16:56:24;;;;;;;5.65;1.25;;;28.30;95.80;;;;;;20849163;28;20479;-79
2022/07/30 17:06:25;;;;;;;5.07;1.23;;;27.90;95.90;;;;;;20819976;28;20038;-79
2022/07/30 17:16:26;;;;;;;7.85;1.75;;;27.90;96.10;;;;;;20854297;28;20037;-78
2022/07/30 17:26:27;;;;;;;4.03;1.60;;;27.70;96.10;;;;;;20871420;28;20032;-81
2022/07/30 17:36:28;;;;;;;1.05;0.95;;;27.60;95.70;;;;;;20869269;28;20030;-79
2022/07/30 17:46:32;;;;;;;2.63;0.82;;;27.10;96.10;;;;;;20869785;28;20507;-80
2022/07/30 17:56:33;;;;;;;1.15;0.82;;;27.00;96.80;;;;;;20892634;28;20095;-80
2022/07/30 18:06:34;;;;;;;2.88;0.93;;;27.10;96.70;;;;;;20903523;28;20420;-79
2022/07/30 18:16:35;;;;;;;3.88;1.63;;;26.80;97.00;;;;;;20886119;28;20048;-78
2022/07/30 18:26:37;;;;;;;10.40;1.63;;;26.40;98.00;;;;;;20889088;28;20057;-79
2022/07/30 18:36:38;;;;;;;13.10;2.08;;;25.90;99.40;;;;;;20883851;28;20040;-79
2022/07/30 18:46:39;;;;;;;9.85;2.17;;;25.40;99.90;;;;;;20880770;28;20471;-81
2022/07/30 18:56:39;;;;;;;;;;;24.70;99.90;;;;;;20882629;28;20064;-79
2022/07/30 19:06:40;;;;;;;8.40;3.83;;;24.10;99.90;;;;;;20881100;28;19944;-79
2022/07/30 19:16:43;;;;;;;10.45;2.60;;;23.40;99.90;;;;;;20887984;28;20032;-80
2022/07/30 19:26:43;;;;;;;8.60;4.22;;;22.70;99.90;;;;;;20885703;28;20100;-80
2022/07/30 19:36:44;;;;;;;8.47;2.20;;;22.60;99.90;;;;;;20890522;28;20035;-80
2022/07/30 19:46:46;;;;;;;12.90;2.33;;;21.80;99.90;;;;;;20893190;28;20069;-79
2022/07/30 19:56:47;;;;;;;7.18;1.98;;;21.70;99.90;;;;;;20901013;28;20048;-80
2022/07/30 20:06:48;;;;;;;11.37;3.30;;;21.60;99.90;;;;;;20909769;28;20033;-79
2022/07/30 20:16:49;;;;;;;22.40;8.18;;;21.30;99.90;;;;;;20861460;28;20080;-79
2022/07/30 20:26:50;;;;;;;3.53;2.30;;;21.20;99.90;;;;;;20876168;28;20037;-81
2022/07/30 20:36:51;;;;;;;19.70;6.10;;;21.10;99.90;;;;;;20874661;28;20048;-81
2022/07/30 20:46:52;;;;;;;26.75;11.73;;;20.90;99.90;;;;;;20857991;28;20132;-79
2022/07/30 20:56:53;;;;;;;7.47;4.23;;;20.80;99.90;;;;;;20873219;28;20033;-78
2022/07/30 21:06:54;;;;;;;7.53;3.13;;;20.60;99.90;;;;;;20871697;28;20034;-79
2022/07/30 21:16:55;;;;;;;26.30;9.20;;;20.40;99.90;;;;;;20872981;28;20116;-80
2022/07/30 21:26:55;;;;;;;9.10;4.83;;;20.20;99.90;;;;;;20872099;28;20033;-82
2022/07/30 21:36:56;;;;;;;50.90;21.63;;;19.80;99.90;;;;;;20869154;28;20519;-80
2022/07/30 21:46:57;;;;;;;33.03;13.13;;;19.90;99.90;;;;;;20883695;28;20048;-79
2022/07/30 21:56:58;;;;;;;17.70;7.20;;;20.10;99.90;;;;;;20880217;28;20060;-80
2022/07/30 22:06:59;;;;;;;9.60;4.17;;;19.90;99.90;;;;;;20865924;28;20033;-79
2022/07/30 22:16:59;;;;;;;5.63;3.07;;;19.70;99.90;;;;;;20880290;28;20029;-82
2022/07/30 22:27:00;;;;;;;60.60;31.10;;;19.30;99.90;;;;;;20878509;28;20067;-79
2022/07/30 22:37:01;;;;;;;9.90;3.97;;;19.40;99.90;;;;;;20867442;28;20036;-80
2022/07/30 22:47:02;;;;;;;24.90;6.23;;;19.30;99.90;;;;;;20899486;28;20022;-79
2022/07/30 22:57:03;;;;;;;24.60;11.07;;;19.10;99.90;;;;;;20896576;28;20033;-79
2022/07/30 23:07:05;;;;;;;19.13;5.97;;;18.80;99.90;;;;;;20888189;28;20037;-78
2022/07/30 23:17:06;;;;;;;31.05;16.35;;;18.70;99.90;;;;;;20854491;28;20395;-78
2022/07/30 23:27:07;;;;;;;26.90;11.67;;;18.40;99.90;;;;;;20807578;28;20133;-78
2022/07/30 23:37:08;;;;;;;13.53;4.80;;;18.30;99.90;;;;;;20796859;28;20030;-79
2022/07/30 23:47:09;;;;;;;14.53;6.03;;;17.90;99.90;;;;;;20796877;28;20061;-80
2022/07/30 23:57:09;;;;;;;7.67;4.90;;;17.80;99.90;;;;;;20795315;28;20037;-79
